KBAB/BAB METAR and TAF weather

Enter ICAO airport designator
Station Type Date Time Source
KBAB METAR 2024/04/15 08:55 UTC NOAA

KBAB 150855Z AUTO 00000KT 10SM OVC049 11/09 A3013 RMK AO2 SLP206 T01100094 50000 RVRNO VISNO RWY33 $


Station Type Date Time Source
KBAB Decoded METAR 2024/04/15 08:55 UTC NOAA

Marysville, Beale Air Force Base, CA, United States (KBAB) 39-08N 121-26W
Apr 15, 2024 - 04:55 AM EDT / 2024.04.15 0855 UTC
Wind: Calm:0
Visibility: 10 mile(s):0
Sky conditions: overcast
Temperature: 51.8 F (11.0 C)
Dew Point: 48.9 F (9.4 C)
Relative Humidity: 89%
Pressure (altimeter): 30.13 in. Hg (1020 hPa)
Pressure tendency: 0.00 inches (0.0 hPa) higher than three hours ago
ob: KBAB 150855Z AUTO 00000KT 10SM OVC049 11/09 A3013 RMK AO2 SLP206 T01100094 50000 RVRNO VISNO RWY33
cycle: 9

Station Type Date Time Source
KBAB TAF 2024/04/12 20:41 UTC NOAA